Time;durP1;ratioP1;P1;durP2;ratioP2;P2;SDS_P1;SDS_P2;PMS_P1;PMS_P2;Temp;Humidity;BMP_temperature;BMP_pressure;BME280_temperature;BME280_humidity;BME280_pressure;Samples;Min_cycle;Max_cycle;Signal;HPM_P1;HPM_P2
2022/03/25 00:02:02;;;;;;;24.27;15.67;;;;;;;6.26;65.76;99099.78;5068160;28;20750;-68
2022/03/25 00:04:28;;;;;;;23.57;14.50;;;;;;;6.21;65.36;99104.34;5063613;28;20219;-70
2022/03/25 00:06:54;;;;;;;26.97;15.43;;;;;;;6.20;65.59;99100.00;5064918;28;20220;-68
2022/03/25 00:09:21;;;;;;;25.43;16.10;;;;;;;6.20;64.91;99102.63;5068221;28;20586;-68
2022/03/25 00:11:47;;;;;;;25.27;16.00;;;;;;;6.29;62.78;99102.28;5068125;28;20210;-68
2022/03/25 00:14:16;;;;;;;23.77;15.57;;;;;;;6.28;63.23;99102.38;5066067;28;20293;-70
2022/03/25 00:16:43;;;;;;;23.83;15.87;;;;;;;6.17;62.79;99102.72;5064779;28;20659;-70
2022/03/25 00:19:09;;;;;;;22.97;15.77;;;;;;;6.08;64.67;99095.22;5067996;28;20222;-68
2022/03/25 00:21:36;;;;;;;25.23;15.37;;;;;;;5.99;65.90;99103.41;5064373;28;20288;-70
2022/03/25 00:24:03;;;;;;;24.47;16.30;;;;;;;5.90;66.76;99090.63;5065962;28;20718;-70
2022/03/25 00:26:30;;;;;;;23.00;15.50;;;;;;;5.85;67.03;99095.16;5064302;28;20215;-69
2022/03/25 00:28:56;;;;;;;23.43;15.40;;;;;;;5.77;67.00;99089.31;5067647;28;20221;-70
2022/03/25 00:31:24;;;;;;;25.40;16.30;;;;;;;5.83;67.59;99104.88;5066221;28;20591;-69
2022/03/25 00:33:51;;;;;;;25.70;15.37;;;;;;;5.76;68.92;99092.84;5062481;28;20222;-68
2022/03/25 00:36:18;;;;;;;25.40;15.97;;;;;;;5.72;67.36;99093.84;5060072;28;20278;-67
2022/03/25 00:38:45;;;;;;;21.87;15.10;;;;;;;5.68;67.85;99089.59;5049470;28;20294;-69
2022/03/25 00:41:12;;;;;;;22.27;14.93;;;;;;;5.66;67.85;99086.19;5062651;28;20219;-69
2022/03/25 00:43:41;;;;;;;21.77;14.70;;;;;;;5.56;68.26;99089.19;5059868;28;20243;-69
2022/03/25 00:46:07;;;;;;;23.73;14.43;;;;;;;5.51;69.32;99086.69;5060144;28;20269;-69
2022/03/25 00:48:35;;;;;;;20.73;14.13;;;;;;;5.46;69.54;99087.78;5064023;28;20225;-69
2022/03/25 00:51:01;;;;;;;21.67;14.57;;;;;;;5.46;70.81;99083.41;5063276;28;20222;-69
2022/03/25 00:53:28;;;;;;;24.00;14.27;;;;;;;5.46;71.89;99078.16;5063862;28;20222;-70
2022/03/25 00:55:55;;;;;;;22.70;13.60;;;;;;;5.49;72.09;99071.97;5057471;28;20215;-68
2022/03/25 00:58:21;;;;;;;22.77;14.03;;;;;;;5.45;72.14;99071.19;5065121;28;20214;-68
2022/03/25 01:00:48;;;;;;;24.10;14.90;;;;;;;5.46;72.75;99078.16;5067383;28;20262;-69
2022/03/25 01:03:16;;;;;;;20.50;13.33;;;;;;;5.40;73.03;99078.38;5066535;28;20235;-69
2022/03/25 01:05:43;;;;;;;22.97;14.53;;;;;;;5.33;72.80;99076.88;5063355;28;20745;-70
2022/03/25 01:08:11;;;;;;;17.73;12.73;;;;;;;5.22;71.92;99073.75;5066834;28;20217;-72
2022/03/25 01:10:38;;;;;;;22.97;15.03;;;;;;;5.01;70.97;99078.81;5067391;28;20248;-69
2022/03/25 01:13:05;;;;;;;21.20;12.97;;;;;;;4.87;71.55;99074.00;5066748;28;20210;-69
2022/03/25 01:15:31;;;;;;;18.30;12.70;;;;;;;4.77;73.34;99080.44;5063674;28;20267;-68
2022/03/25 01:17:58;;;;;;;18.93;13.17;;;;;;;4.66;76.34;99073.81;5066586;28;20217;-69
2022/03/25 01:20:25;;;;;;;19.87;13.53;;;;;;;4.65;76.86;99075.56;5067091;28;20216;-69
2022/03/25 01:22:53;;;;;;;19.47;12.27;;;;;;;4.66;77.79;99077.31;5064857;28;20693;-68
2022/03/25 01:25:19;;;;;;;17.40;12.53;;;;;;;4.66;78.53;99077.31;5063512;28;20219;-68
2022/03/25 01:27:45;;;;;;;18.80;13.20;;;;;;;4.67;78.99;99079.03;5066169;28;20214;-69
2022/03/25 01:30:12;;;;;;;15.83;11.87;;;;;;;4.69;78.97;99071.97;5067242;28;20221;-69
2022/03/25 01:32:39;;;;;;;17.10;12.13;;;;;;;4.67;79.12;99073.78;5070208;28;20211;-69
2022/03/25 01:35:08;;;;;;;19.80;12.30;;;;;;;4.67;79.18;99080.78;5070043;28;20218;-69
2022/03/25 01:37:35;;;;;;;20.43;13.30;;;;;;;4.62;79.49;99082.66;5069769;28;20226;-69
2022/03/25 01:40:07;;;;;;;18.27;12.67;;;;;;;4.62;79.68;99080.91;5071150;28;20609;-69
2022/03/25 01:42:34;;;;;;;16.63;12.60;;;;;;;4.64;79.60;99079.09;5070394;28;20269;-69
2022/03/25 01:45:01;;;;;;;20.53;13.40;;;;;;;4.66;79.64;99077.31;5067046;28;20260;-68
2022/03/25 01:47:29;;;;;;;22.73;13.77;;;;;;;4.63;80.95;99077.41;5070064;28;20224;-69
2022/03/25 01:49:55;;;;;;;19.60;13.43;;;;;;;4.66;81.22;99072.06;5069240;28;20610;-69
2022/03/25 01:52:22;;;;;;;20.87;13.80;;;;;;;4.60;81.07;99072.28;5070247;28;20223;-69
2022/03/25 01:54:49;;;;;;;21.17;14.70;;;;;;;4.61;80.84;99078.34;5067160;28;20210;-69
2022/03/25 01:57:19;;;;;;;19.03;12.60;;;;;;;4.53;81.92;99075.09;5069528;28;20222;-69
2022/03/25 01:59:45;;;;;;;21.23;13.73;;;;;;;4.61;81.68;99076.59;5069854;28;20220;-68
2022/03/25 02:02:12;;;;;;;21.27;13.77;;;;;;;4.61;81.50;99079.22;5070148;28;20241;-68
2022/03/25 02:04:39;;;;;;;22.60;14.30;;;;;;;4.59;81.92;99083.63;5066566;28;20241;-68
2022/03/25 02:07:06;;;;;;;23.73;14.60;;;;;;;4.60;82.41;99082.75;5068963;28;20209;-68
2022/03/25 02:09:33;;;;;;;20.30;13.90;;;;;;;4.56;81.53;99073.25;5070079;28;20219;-68
2022/03/25 02:12:00;;;;;;;21.00;14.13;;;;;;;4.56;81.92;99072.38;5066311;28;20225;-69
2022/03/25 02:14:28;;;;;;;22.00;14.03;;;;;;;4.52;82.07;99084.72;5066304;28;20220;-69
2022/03/25 02:16:55;;;;;;;24.63;14.70;;;;;;;4.52;81.83;99079.47;5067902;28;20215;-69
2022/03/25 02:19:25;;;;;;;20.30;13.93;;;;;;;4.44;81.02;99086.72;5070307;28;20407;-69
2022/03/25 02:21:53;;;;;;;21.07;13.87;;;;;;;4.30;81.85;99083.66;5067351;28;20219;-69
2022/03/25 02:24:19;;;;;;;20.83;14.07;;;;;;;4.13;82.27;99080.66;5066115;28;20234;-69
2022/03/25 02:26:45;;;;;;;21.03;14.57;;;;;;;4.04;82.71;99078.28;5069054;28;20219;-69
2022/03/25 02:29:14;;;;;;;18.67;12.93;;;;;;;3.99;83.88;99082.81;5070100;28;20210;-69
2022/03/25 02:31:41;;;;;;;22.10;14.60;;;;;;;3.93;84.48;99088.22;5069861;28;20213;-69
2022/03/25 02:34:10;;;;;;;24.30;14.03;;;;;;;3.91;84.72;99084.75;5066407;28;20215;-69
2022/03/25 02:36:37;;;;;;;19.47;12.90;;;;;;;3.86;84.84;99081.41;5068774;28;20224;-69
2022/03/25 02:39:05;;;;;;;19.80;13.17;;;;;;;3.72;85.55;99088.78;5069924;28;20225;-69
2022/03/25 02:41:32;;;;;;;17.90;12.97;;;;;;;3.71;85.02;99081.84;5067970;28;20215;-69
2022/03/25 02:43:59;;;;;;;20.83;13.47;;;;;;;3.62;86.27;99082.06;5065450;28;20247;-69
2022/03/25 02:46:26;;;;;;;18.07;13.13;;;;;;;3.71;86.66;99087.06;5068393;28;20221;-69
2022/03/25 02:48:52;;;;;;;22.07;13.60;;;;;;;3.72;86.59;99083.56;5069809;28;20208;-69
2022/03/25 02:51:19;;;;;;;20.30;13.87;;;;;;;3.65;87.44;99076.78;5069613;28;20678;-69
2022/03/25 02:53:45;;;;;;;18.50;12.93;;;;;;;3.73;87.36;99077.44;5063015;28;20678;-69
2022/03/25 02:56:14;;;;;;;19.23;12.80;;;;;;;3.80;86.60;99080.75;5068042;28;20221;-69
2022/03/25 02:58:40;;;;;;;23.83;14.63;;;;;;;3.84;87.19;99071.94;5069450;28;20596;-69
2022/03/25 03:01:07;;;;;;;25.50;14.33;;;;;;;3.82;87.74;99077.19;5069386;28;20267;-69
2022/03/25 03:03:34;;;;;;;20.07;12.93;;;;;;;3.97;86.65;99073.28;5065800;28;20312;-69
2022/03/25 03:06:00;;;;;;;21.07;13.57;;;;;;;4.01;86.25;99081.00;5067263;28;20209;-69
2022/03/25 03:08:27;;;;;;;23.90;15.30;;;;;;;4.04;85.43;99083.53;5068106;28;20594;-69
2022/03/25 03:10:53;;;;;;;20.20;13.63;;;;;;;3.96;85.75;99082.88;5069456;28;20218;-69
2022/03/25 03:13:21;;;;;;;22.17;14.93;;;;;;;3.97;85.72;99079.38;5066370;28;20235;-69
2022/03/25 03:15:48;;;;;;;21.83;14.20;;;;;;;3.93;85.86;99083.00;5067072;28;20594;-69
2022/03/25 03:18:15;;;;;;;21.77;14.87;;;;;;;3.89;85.80;99081.34;5069155;28;20217;-69
2022/03/25 03:20:43;;;;;;;21.20;14.87;;;;;;;3.85;86.04;99077.09;5068830;28;20293;-69
2022/03/25 03:23:10;;;;;;;25.50;15.03;;;;;;;3.82;86.04;99079.81;5065824;28;20238;-69
2022/03/25 03:25:36;;;;;;;23.70;15.20;;;;;;;3.86;85.98;99076.19;5064247;28;20214;-68
2022/03/25 03:28:04;;;;;;;27.43;16.27;;;;;;;3.89;85.77;99078.72;5068800;28;20222;-69
2022/03/25 03:30:32;;;;;;;22.00;14.73;;;;;;;3.87;85.87;99082.28;5068725;28;20220;-69
2022/03/25 03:32:58;;;;;;;25.50;14.17;;;;;;;3.83;86.01;99080.66;5064003;28;20671;-69
2022/03/25 03:35:27;;;;;;;23.53;15.97;;;;;;;3.83;86.84;99076.28;5066229;28;20578;-68
2022/03/25 03:37:55;;;;;;;22.60;14.57;;;;;;;3.80;86.16;99076.34;5068748;28;20289;-68
2022/03/25 03:40:22;;;;;;;21.43;13.77;;;;;;;3.81;86.81;99067.63;5068550;28;20220;-68
2022/03/25 03:42:48;;;;;;;22.05;14.85;;;;;;;3.77;87.29;99076.44;5065694;28;20219;-68
2022/03/25 03:45:16;;;;;;;21.33;14.30;;;;;;;3.72;87.74;99070.47;5066142;28;20215;-70
2022/03/25 03:47:44;;;;;;;22.53;14.63;;;;;;;3.74;87.18;99070.44;5068624;28;20224;-70
2022/03/25 03:50:12;;;;;;;20.47;13.40;;;;;;;3.76;87.20;99069.50;5068386;28;20207;-69
2022/03/25 03:52:39;;;;;;;24.43;15.17;;;;;;;3.70;87.33;99067.06;5065183;28;20271;-69
2022/03/25 03:55:07;;;;;;;24.20;14.10;;;;;;;3.65;87.32;99071.56;5065051;28;20303;-68
2022/03/25 03:57:35;;;;;;;21.87;14.77;;;;;;;3.68;87.18;99060.16;5068094;28;20204;-69
2022/03/25 04:00:02;;;;;;;23.97;14.27;;;;;;;3.71;86.94;99073.13;5066695;28;20252;-69
2022/03/25 04:02:29;;;;;;;22.33;14.27;;;;;;;3.70;86.85;99067.06;5065151;28;20598;-69
2022/03/25 04:04:57;;;;;;;23.67;14.87;;;;;;;3.63;87.21;99067.25;5065602;28;20232;-69
2022/03/25 04:07:24;;;;;;;21.53;14.23;;;;;;;3.65;86.96;99066.31;5068138;28;20223;-69
2022/03/25 04:09:51;;;;;;;26.77;14.37;;;;;;;3.66;86.91;99068.03;5068188;28;20213;-70
2022/03/25 04:12:18;;;;;;;23.00;14.63;;;;;;;3.67;87.19;99061.06;5065290;28;20218;-70
2022/03/25 04:14:45;;;;;;;20.70;14.57;;;;;;;3.62;87.21;99066.41;5065135;28;20213;-68
2022/03/25 04:17:12;;;;;;;23.23;14.00;;;;;;;3.56;87.44;99071.78;5068058;28;20263;-69
2022/03/25 04:19:38;;;;;;;25.50;15.23;;;;;;;3.55;87.51;99069.22;5067190;28;20216;-68
2022/03/25 04:22:06;;;;;;;22.77;14.20;;;;;;;3.46;88.70;99077.31;5063908;28;20222;-70
2022/03/25 04:24:33;;;;;;;23.27;14.47;;;;;;;3.48;88.34;99068.53;5063916;28;20770;-70
2022/03/25 04:27:00;;;;;;;23.67;14.93;;;;;;;3.41;86.96;99072.19;5067007;28;20208;-69
2022/03/25 04:29:26;;;;;;;19.53;13.07;;;;;;;3.22;85.13;99075.31;5067808;28;20222;-68
2022/03/25 04:31:53;;;;;;;22.33;14.07;;;;;;;3.01;85.98;99078.47;5065706;28;20212;-69
2022/03/25 04:34:19;;;;;;;22.87;14.50;;;;;;;2.83;89.10;99074.56;5064063;28;20212;-69
2022/03/25 04:36:45;;;;;;;22.67;13.93;;;;;;;2.79;90.57;99070.28;5067848;28;20226;-68
2022/03/25 04:39:13;;;;;;;21.70;15.30;;;;;;;2.68;92.58;99072.28;5067670;28;20588;-68
2022/03/25 04:41:40;;;;;;;26.20;14.70;;;;;;;2.61;92.85;99070.72;5065609;28;20608;-69
2022/03/25 04:44:07;;;;;;;22.83;14.87;;;;;;;2.57;92.70;99074.28;5063755;28;20252;-69
2022/03/25 04:46:34;;;;;;;21.30;14.60;;;;;;;2.55;92.42;99085.63;5046614;28;20622;-69
2022/03/25 04:49:01;;;;;;;20.70;14.17;;;;;;;2.52;93.43;99076.13;5067637;28;20215;-70
2022/03/25 04:51:27;;;;;;;22.07;14.37;;;;;;;2.46;94.09;99081.47;5064286;28;20649;-71
2022/03/25 04:53:54;;;;;;;23.40;15.47;;;;;;;2.39;96.27;99085.13;5063750;28;20220;-70
2022/03/25 04:56:22;;;;;;;25.43;15.17;;;;;;;2.36;96.41;99085.19;5067208;28;20215;-70
2022/03/25 04:58:48;;;;;;;22.77;14.93;;;;;;;2.32;97.92;99083.53;5067105;28;20676;-69
2022/03/25 05:01:15;;;;;;;24.43;16.20;;;;;;;2.32;97.98;99083.53;5066110;28;20250;-70
2022/03/25 05:03:41;;;;;;;22.00;14.43;;;;;;;2.30;97.47;99090.56;5063629;28;20236;-70
2022/03/25 05:06:08;;;;;;;23.17;16.27;;;;;;;2.27;98.25;99088.00;5066346;28;20211;-70
2022/03/25 05:08:34;;;;;;;23.37;15.43;;;;;;;2.31;98.13;99081.84;5067370;28;20210;-70
2022/03/25 05:11:01;;;;;;;23.37;15.43;;;;;;;2.30;97.59;99080.13;5067135;28;20220;-70
2022/03/25 05:13:28;;;;;;;20.80;14.27;;;;;;;2.28;97.29;99088.88;5063617;28;20229;-70
2022/03/25 05:15:55;;;;;;;22.23;13.80;;;;;;;2.28;96.64;99081.88;5066007;28;20215;-70
2022/03/25 05:18:22;;;;;;;22.13;14.60;;;;;;;2.26;97.28;99091.50;5065897;28;20211;-69
2022/03/25 05:20:50;;;;;;;23.53;15.23;;;;;;;2.28;97.58;99083.66;5056887;28;20216;-69
2022/03/25 05:23:16;;;;;;;26.23;15.53;;;;;;;2.33;97.19;99087.03;5063765;28;20298;-69
2022/03/25 05:25:43;;;;;;;24.80;15.07;;;;;;;2.31;97.24;99089.66;5065836;28;20645;-69
2022/03/25 05:28:10;;;;;;;22.60;15.77;;;;;;;2.32;97.50;99088.75;5066990;28;20212;-68
2022/03/25 05:30:38;;;;;;;22.27;15.00;;;;;;;2.30;96.87;99082.72;5066827;28;20215;-68
2022/03/25 05:33:05;;;;;;;22.93;14.10;;;;;;;2.28;96.75;99092.31;5060760;28;20277;-69
2022/03/25 05:35:32;;;;;;;22.27;13.70;;;;;;;2.30;96.13;99085.34;5065549;28;20220;-69
2022/03/25 05:37:58;;;;;;;22.50;14.30;;;;;;;2.36;96.49;99095.63;5067182;28;20234;-69
2022/03/25 05:40:27;;;;;;;21.73;14.13;;;;;;;2.38;96.17;99093.84;5066833;28;20200;-68
2022/03/25 05:42:54;;;;;;;22.63;14.90;;;;;;;2.43;95.74;99097.22;5058828;28;20227;-70
2022/03/25 05:45:22;;;;;;;19.73;13.90;;;;;;;2.40;96.88;99097.28;5065368;28;20235;-69
2022/03/25 05:47:51;;;;;;;21.90;14.80;;;;;;;2.44;97.33;99098.09;5066621;28;20244;-70
2022/03/25 05:50:17;;;;;;;27.10;15.37;;;;;;;2.56;97.01;99096.06;5067011;28;20224;-69
2022/03/25 05:52:44;;;;;;;22.10;14.87;;;;;;;2.62;96.10;99101.13;5060317;28;20220;-70
2022/03/25 05:55:13;;;;;;;23.07;15.03;;;;;;;2.67;95.51;99106.25;5065376;28;20251;-69
2022/03/25 05:57:40;;;;;;;22.50;14.50;;;;;;;2.65;95.01;99103.69;5066830;28;20276;-69
2022/03/25 06:00:08;;;;;;;21.67;13.87;;;;;;;2.70;93.39;99107.03;5066872;28;20215;-70
2022/03/25 06:02:35;;;;;;;20.73;13.70;;;;;;;2.70;93.70;99104.41;5060151;28;20794;-70
2022/03/25 06:05:03;;;;;;;18.03;13.10;;;;;;;2.79;92.94;99105.97;5065218;28;20240;-70
2022/03/25 06:07:35;;;;;;;20.43;12.67;;;;;;;2.81;93.50;99107.66;5066898;28;20211;-70
2022/03/25 06:10:02;;;;;;;18.70;13.33;;;;;;;2.86;93.31;99112.75;5064183;28;20751;-70
2022/03/25 06:12:28;;;;;;;18.77;12.73;;;;;;;2.91;93.04;99109.16;5063023;28;20219;-70
2022/03/25 06:14:55;;;;;;;21.50;13.20;;;;;;;3.00;92.09;99108.94;5065715;28;20226;-69
2022/03/25 06:17:21;;;;;;;18.00;12.50;;;;;;;3.06;91.56;99115.78;5066687;28;20211;-70
2022/03/25 06:19:48;;;;;;;19.70;13.63;;;;;;;3.10;91.60;99120.88;5067556;28;20208;-70
2022/03/25 06:22:15;;;;;;;19.80;13.20;;;;;;;3.19;91.62;99123.25;5066554;28;20294;-70
2022/03/25 06:24:42;;;;;;;21.37;13.73;;;;;;;3.29;91.47;99130.00;5068527;28;20239;-69
2022/03/25 06:27:09;;;;;;;22.10;14.40;;;;;;;3.41;91.42;99124.47;5069988;28;20222;-70
2022/03/25 06:29:35;;;;;;;21.57;14.17;;;;;;;3.55;90.91;99121.50;5069808;28;20215;-70
2022/03/25 06:32:03;;;;;;;22.60;14.13;;;;;;;3.65;90.83;99126.44;5066310;28;20212;-70
2022/03/25 06:34:30;;;;;;;24.27;15.83;;;;;;;3.77;90.53;99133.97;5067943;28;20319;-69
2022/03/25 06:36:56;;;;;;;20.57;15.03;;;;;;;3.96;89.35;99122.13;5068829;28;20216;-69
2022/03/25 06:39:24;;;;;;;25.40;15.53;;;;;;;4.18;88.11;99127.63;5069899;28;20218;-68
2022/03/25 06:41:51;;;;;;;27.33;16.63;;;;;;;4.37;86.69;99131.41;5066344;28;20221;-69
2022/03/25 06:44:17;;;;;;;25.00;16.07;;;;;;;4.56;85.19;99130.84;5067615;28;20244;-69
2022/03/25 06:46:43;;;;;;;23.60;16.57;;;;;;;4.65;84.93;99140.19;5069618;28;20221;-69
2022/03/25 06:49:10;;;;;;;23.23;15.53;;;;;;;4.73;84.42;99133.81;5069689;28;20220;-69
2022/03/25 06:51:37;;;;;;;23.77;16.10;;;;;;;4.84;84.47;99139.56;5067027;28;20216;-69
2022/03/25 06:54:04;;;;;;;22.20;15.20;;;;;;;4.99;84.25;99138.25;5067257;28;20216;-69
2022/03/25 06:56:35;;;;;;;23.30;15.97;;;;;;;5.15;83.02;99140.38;5069470;28;20217;-69
2022/03/25 06:59:03;;;;;;;21.73;15.00;;;;;;;5.29;81.88;99137.28;5069348;28;20675;-68
2022/03/25 07:01:31;;;;;;;21.23;14.93;;;;;;;5.38;82.65;99143.06;5064270;28;20240;-69
2022/03/25 07:03:58;;;;;;;21.97;15.30;;;;;;;5.51;83.13;99139.13;5067042;28;20726;-70
2022/03/25 07:06:25;;;;;;;22.37;14.43;;;;;;;5.66;81.52;99136.03;5069439;28;20220;-68
2022/03/25 07:08:55;;;;;;;24.37;15.93;;;;;;;5.83;80.51;99141.59;5069391;28;20216;-69
2022/03/25 07:11:22;;;;;;;23.40;14.67;;;;;;;5.89;79.49;99138.75;5065393;28;20272;-69
2022/03/25 07:13:51;;;;;;;23.57;16.00;;;;;;;5.99;79.69;99148.00;5067149;28;20215;-69
2022/03/25 07:16:18;;;;;;;29.47;16.57;;;;;;;6.12;79.40;99149.28;5069284;28;20216;-69
2022/03/25 07:18:44;;;;;;;25.07;15.57;;;;;;;6.25;77.76;99152.34;5069162;28;20223;-69
2022/03/25 07:21:11;;;;;;;21.30;14.77;;;;;;;6.33;76.64;99148.53;5055755;28;20218;-69
2022/03/25 07:23:38;;;;;;;22.07;15.33;;;;;;;6.38;76.63;99157.09;5067191;28;20630;-69
2022/03/25 07:26:05;;;;;;;21.90;15.53;;;;;;;6.48;75.92;99166.34;5069075;28;20242;-69
2022/03/25 07:28:32;;;;;;;24.77;15.80;;;;;;;6.58;75.86;99159.84;5067469;28;20221;-68
2022/03/25 07:30:59;;;;;;;25.00;15.87;;;;;;;6.81;75.46;99162.47;5065741;28;20294;-68
2022/03/25 07:33:26;;;;;;;25.83;16.03;;;;;;;6.97;73.73;99166.22;5066613;28;20269;-69
2022/03/25 07:35:52;;;;;;;24.20;15.83;;;;;;;7.11;73.41;99166.56;5069094;28;20215;-69
2022/03/25 07:38:19;;;;;;;21.67;15.63;;;;;;;7.27;72.21;99172.91;5068881;28;20219;-69
2022/03/25 07:40:45;;;;;;;24.80;16.33;;;;;;;7.42;70.97;99164.41;5066415;28;20635;-69
2022/03/25 07:43:12;;;;;;;24.33;16.10;;;;;;;7.47;71.77;99171.19;5063307;28;20266;-69
2022/03/25 07:45:39;;;;;;;24.13;15.60;;;;;;;7.55;70.19;99155.09;5068744;28;20231;-69
2022/03/25 07:48:07;;;;;;;21.93;15.37;;;;;;;7.65;71.05;99164.34;5068670;28;20297;-68
2022/03/25 07:50:34;;;;;;;21.20;15.57;;;;;;;7.77;70.53;99166.47;5065529;28;20215;-69
2022/03/25 07:53:00;;;;;;;22.60;16.00;;;;;;;7.85;70.29;99170.47;5063733;28;20227;-69
2022/03/25 07:55:27;;;;;;;22.90;16.03;;;;;;;7.94;69.44;99171.88;5068486;28;20211;-69
2022/03/25 07:57:53;;;;;;;24.10;16.93;;;;;;;8.06;69.09;99173.97;5066274;28;20784;-69
2022/03/25 08:00:20;;;;;;;24.93;16.83;;;;;;;8.21;67.58;99168.94;5064892;28;20208;-68
2022/03/25 08:02:49;;;;;;;26.67;17.10;;;;;;;8.29;66.83;99169.47;5062902;28;20239;-68
2022/03/25 08:05:17;;;;;;;25.33;17.30;;;;;;;8.43;65.85;99171.47;5066579;28;20240;-68
2022/03/25 08:07:45;;;;;;;26.03;17.17;;;;;;;8.59;65.61;99173.41;5066903;28;20223;-69
2022/03/25 08:10:12;;;;;;;29.77;17.43;;;;;;;8.72;63.79;99173.69;5064752;28;20246;-69
2022/03/25 08:12:39;;;;;;;27.43;17.80;;;;;;;8.77;64.26;99162.03;5063240;28;20239;-69
2022/03/25 08:15:06;;;;;;;27.43;18.40;;;;;;;8.88;63.13;99161.53;5059223;28;20219;-70
2022/03/25 08:17:45;;;;;;;22.70;16.00;;;;;;;8.94;62.23;99167.34;5058055;28;20245;-69
2022/03/25 08:20:12;;;;;;;25.70;17.57;;;;;;;9.07;61.79;99172.91;5056542;28;20212;-70
2022/03/25 08:22:39;;;;;;;24.60;16.90;;;;;;;9.21;61.85;99168.72;5057529;28;20678;-69
2022/03/25 08:27:50;;;;;;;28.00;18.27;;;;;;;9.38;61.21;99170.53;5031712;28;20224;-69
2022/03/25 08:30:16;;;;;;;27.10;17.80;;;;;;;9.52;61.94;99176.00;5055038;28;20220;-68
2022/03/25 08:32:43;;;;;;;26.57;17.63;;;;;;;9.74;61.15;99176.66;5050949;28;20218;-69
2022/03/25 08:35:10;;;;;;;27.93;16.77;;;;;;;9.85;59.58;99171.72;5055893;28;20212;-68
2022/03/25 08:37:37;;;;;;;25.00;17.80;;;;;;;9.95;60.77;99173.81;5056330;28;20219;-69
2022/03/25 08:40:06;;;;;;;24.17;17.33;;;;;;;10.05;59.56;99168.97;5056339;28;20224;-69
2022/03/25 08:42:32;;;;;;;28.37;17.83;;;;;;;10.17;59.27;99163.06;5059338;28;20226;-70
2022/03/25 08:44:59;;;;;;;27.17;17.40;;;;;;;10.28;57.38;99161.56;5056897;28;20290;-69
2022/03/25 08:47:25;;;;;;;25.57;17.80;;;;;;;10.37;58.67;99162.88;5061874;28;20223;-69
2022/03/25 08:49:52;;;;;;;26.13;17.50;;;;;;;10.48;56.92;99161.38;5065671;28;20590;-71
2022/03/25 08:52:21;;;;;;;30.17;18.03;;;;;;;10.64;57.16;99166.72;5068153;28;20237;-70
2022/03/25 08:54:47;;;;;;;29.57;18.97;;;;;;;10.71;54.36;99155.72;5068137;28;20653;-69
2022/03/25 08:57:15;;;;;;;27.03;18.23;;;;;;;10.84;55.05;99166.50;5068475;28;20579;-70
2022/03/25 08:59:42;;;;;;;27.80;17.90;;;;;;;11.01;54.41;99171.75;5065904;28;20207;-70
2022/03/25 09:02:09;;;;;;;29.20;19.10;;;;;;;11.05;53.91;99166.19;5067367;28;20249;-69
2022/03/25 09:04:35;;;;;;;26.43;18.93;;;;;;;11.11;53.40;99170.28;5068087;28;20217;-70
2022/03/25 09:07:02;;;;;;;25.60;17.63;;;;;;;11.16;53.24;99169.09;5068104;28;20701;-69
2022/03/25 09:09:29;;;;;;;26.90;18.67;;;;;;;11.27;53.66;99160.56;5065983;28;20585;-69
2022/03/25 09:11:55;;;;;;;29.27;18.37;;;;;;;11.50;52.85;99168.06;5067335;28;20215;-69
2022/03/25 09:14:23;;;;;;;25.93;18.13;;;;;;;11.61;51.33;99165.72;5066970;28;20300;-69
2022/03/25 09:16:50;;;;;;;25.50;17.80;;;;;;;11.65;52.29;99167.22;5068359;28;20216;-68
2022/03/25 09:19:16;;;;;;;27.20;18.37;;;;;;;11.76;52.35;99156.88;5066431;28;20584;-69
2022/03/25 09:21:43;;;;;;;26.37;18.87;;;;;;;11.94;50.38;99159.31;5054843;28;20212;-69
2022/03/25 09:24:09;;;;;;;29.27;19.30;;;;;;;12.06;51.16;99157.75;5068253;28;20217;-69
2022/03/25 09:26:36;;;;;;;27.90;18.97;;;;;;;12.10;50.45;99156.63;5067920;28;20242;-69
2022/03/25 09:29:02;;;;;;;27.60;18.73;;;;;;;12.21;48.25;99167.41;5066965;28;20301;-70
2022/03/25 09:31:30;;;;;;;26.83;18.50;;;;;;;12.30;48.12;99164.25;5065096;28;20230;-69
2022/03/25 09:35:08;;;;;;;28.87;18.57;;;;;;;12.31;47.56;99158.84;5061969;28;20291;-69
2022/03/25 09:36:43;;;;;;;31.57;18.93;;;;;;;12.43;47.43;99162.56;5046842;28;20221;-69
2022/03/25 09:39:10;;;;;;;26.63;18.70;;;;;;;12.58;47.04;99162.47;5060185;28;20223;-69
2022/03/25 09:41:37;;;;;;;27.30;19.13;;;;;;;12.70;45.52;99171.47;5066670;28;20221;-69
2022/03/25 09:44:05;;;;;;;30.73;19.17;;;;;;;12.67;46.34;99161.06;5067637;28;20219;-69
2022/03/25 09:46:32;;;;;;;28.67;18.83;;;;;;;12.79;47.21;99171.78;5067860;28;20242;-69
2022/03/25 09:48:59;;;;;;;29.47;20.07;;;;;;;12.92;46.89;99171.88;5064323;28;20590;-69
2022/03/25 09:51:26;;;;;;;30.90;19.57;;;;;;;12.93;45.93;99170.91;5067959;28;20602;-70
2022/03/25 09:53:53;;;;;;;28.83;18.83;;;;;;;13.02;46.22;99159.75;5071414;28;20476;-69
2022/03/25 09:56:20;;;;;;;27.27;18.90;;;;;;;13.04;46.00;99163.16;5071781;28;20215;-69
2022/03/25 09:58:47;;;;;;;28.73;19.50;;;;;;;13.18;45.93;99163.13;5068793;28;20226;-69
2022/03/25 10:01:13;;;;;;;29.63;19.30;;;;;;;13.29;44.88;99155.34;5046736;28;20238;-69
2022/03/25 10:03:41;;;;;;;27.90;18.47;;;;;;;13.47;44.11;99159.47;5072540;28;20215;-70
2022/03/25 10:06:12;;;;;;;28.40;18.13;;;;;;;13.45;44.17;99153.44;5071147;28;20723;-70
2022/03/25 10:08:39;;;;;;;28.17;19.00;;;;;;;13.47;43.92;99156.81;5069105;28;20212;-71
2022/03/25 10:11:19;;;;;;;29.43;19.60;;;;;;;13.46;44.47;99147.16;5072178;28;20258;-71
2022/03/25 10:13:46;;;;;;;32.90;20.47;;;;;;;13.51;44.40;99148.56;5072232;28;20298;-70
2022/03/25 10:16:29;;;;;;;31.77;19.83;;;;;;;13.70;42.38;99150.88;5071401;28;20218;-70
2022/03/25 10:18:58;;;;;;;31.97;20.23;;;;;;;13.83;41.08;99149.13;5046438;28;20221;-69
2022/03/25 10:21:25;;;;;;;32.90;20.50;;;;;;;13.91;41.64;99141.47;5067550;28;20212;-70
2022/03/25 10:23:52;;;;;;;28.87;19.20;;;;;;;14.02;41.53;99138.94;5071023;28;20219;-70
2022/03/25 10:26:18;;;;;;;29.03;19.50;;;;;;;14.20;42.68;99145.72;5068046;28;20244;-69
2022/03/25 10:28:50;;;;;;;29.33;19.33;;;;;;;14.39;42.13;99146.16;5055036;28;20215;-70
2022/03/25 10:31:18;;;;;;;29.07;19.50;;;;;;;14.44;40.91;99149.38;5071089;28;20212;-69
2022/03/25 10:33:47;;;;;;;28.00;18.60;;;;;;;14.34;41.56;99140.31;5069755;28;20212;-69
2022/03/25 10:36:17;;;;;;;28.77;19.17;;;;;;;14.49;42.02;99141.94;5064435;28;20222;-70
2022/03/25 10:38:49;;;;;;;28.30;19.40;;;;;;;14.55;41.06;99139.69;5070967;28;20252;-69
2022/03/25 10:41:17;;;;;;;30.07;19.70;;;;;;;14.70;41.19;99140.44;5070907;28;20211;-70
2022/03/25 10:43:59;;;;;;;31.87;20.07;;;;;;;14.73;40.64;99145.56;5070057;28;20224;-70
2022/03/25 10:46:28;;;;;;;30.70;18.97;;;;;;;14.75;40.66;99140.97;5054816;28;20321;-70
2022/03/25 10:48:54;;;;;;;28.27;19.80;;;;;;;14.93;40.95;99137.88;5070733;28;20211;-71
2022/03/25 10:51:22;;;;;;;30.60;20.37;;;;;;;14.99;40.69;99133.91;5070714;28;20215;-70
2022/03/25 10:53:56;;;;;;;30.73;20.30;;;;;;;15.14;39.78;99141.66;5067661;28;20220;-70
2022/03/25 10:56:23;;;;;;;28.07;18.57;;;;;;;15.28;38.28;99138.00;5046577;28;20580;-69
2022/03/25 10:58:53;;;;;;;27.43;19.40;;;;;;;15.39;37.92;99130.13;5070814;28;20261;-70
2022/03/25 11:01:20;;;;;;;26.87;19.20;;;;;;;15.50;38.87;99127.50;5068922;28;20239;-69
2022/03/25 11:03:49;;;;;;;26.40;18.33;;;;;;;15.59;37.75;99121.50;5063437;28;20212;-71
2022/03/25 11:06:17;;;;;;;26.77;18.27;;;;;;;15.74;37.25;99120.38;5070462;28;20238;-71
2022/03/25 11:08:45;;;;;;;27.20;19.73;;;;;;;15.78;37.33;99132.50;5070388;28;20593;-71
2022/03/25 11:11:12;;;;;;;28.70;20.07;;;;;;;15.91;36.38;99117.31;5070092;28;20215;-71
2022/03/25 11:13:39;;;;;;;27.43;19.30;;;;;;;15.95;35.96;99113.44;5067339;28;20246;-69
2022/03/25 11:16:08;;;;;;;28.63;19.33;;;;;;;15.98;36.42;99113.19;5070265;28;20219;-69
2022/03/25 11:18:36;;;;;;;28.03;19.53;;;;;;;16.08;37.45;99113.25;5069957;28;20215;-69
2022/03/25 11:21:05;;;;;;;26.23;18.83;;;;;;;16.24;36.60;99113.78;5058441;28;20204;-70
2022/03/25 11:23:37;;;;;;;25.43;18.43;;;;;;;16.41;35.85;99118.69;5067771;28;20220;-69
2022/03/25 11:26:09;;;;;;;27.17;19.70;;;;;;;16.34;35.50;99104.09;5068138;28;20250;-72
2022/03/25 11:28:37;;;;;;;29.07;19.57;;;;;;;16.42;35.42;99107.06;5069772;28;20226;-69